Hlavní strana
METAR-TAF:

METAR-TAF

Letiště :

Parma, Itálie

zeměpisná šířka: 44-49-17N, zeměpisná délka: 010-17-41E, výška: 50 m

Aktuální stav počasí

Zpráva byla vytvořena před 50 minutami, v 15:50 UTC
Východní vítr 7 kt
Teplota 11°C
Vlhkost vzduchu 62%
Tlak 1027 hPa
Viditelnost 10 km a více
Skoro jasno ve výšce 3000 ft

METAR: LIMP 161550Z 08007KT 9999 FEW030 11/04 Q1027

Čas: 17:40 (16:40 UTC)

Předpověď počasí

Zpráva byla vytvořena před 5 hodinami a 40 minutami, v 11:00 UTC
Předpověď platná od 16 v 12 UTC do 17 v 12 UTC
Východní vítr 7 kt
Viditelnost: 8000 m
Polojasno ve výšce 3000 ft

TAF: LIMP 161100Z 1612/1712 10007KT 8000 SCT030

Stav a předpovědi počasí z více než 4 000 letišť (zprávy METAR a TAF).

Červené a žluté tečky na mapě představují dostupné meteorologické stanice.

Když kurzor umístíte na tečku, zobrazí se název stanice.

Pak kliknutím zobrazíte stav a předpověď počasí.

Chcete-li změnit mapu, kliknutím na zelené tlačítko se znaménkem +mapu přiblížíte, kliknutím na zelené tlačítko se znaménkem – mapu oddálíte a kliknutím na zelené šipky přejdete na sousední mapy.


METAR-TAF: